Latest Weather Observations for Swan Island

IDT60801

Issued at 11:02 am EDT Sunday 21 December 2014 (issued every 30 minutes, with the page automatically refreshed every 10 minutes)

About weather observations | Map of weather stations | Latest weather observations for TAS | Other Formats
Station Details ID: 092123 Name: SWAN ISLAND Lat: -40.73 Lon: 148.12 Height: 15.0 m
Data from the previous 72 hours. | See also: Recent months at Swan Island
Date/Time
EDT
Temp
°C
App
Temp
°C
Dew
Point
Rel
Hum
%
Delta-T
°C
Wind Press
QNH
hPa
Press
MSL
hPa
Rain
since 9 am
mm
Dir
 
Spd
km/h
Gust
km/h
Spd
kts
Gust
kts
21/11:00am 18.8 - - - - NW 20 24 11 13 1015.4 1015.3 0.0
21/10:30am 19.1 - - - - NNW 11 13 6 7 1015.5 1015.4 0.0
21/10:00am 18.8 - - - - NNE 7 11 4 6 1015.3 1015.2 0.0
21/09:30am 18.9 - - - - ENE 6 7 3 4 1015.3 1015.2 0.0
21/09:00am 19.5 - - - - E 6 7 3 4 1015.1 1015.0 0.0
21/08:30am 18.3 - - - - ESE 7 9 4 5 1015.0 1014.9 0.0
21/08:00am 17.2 - - - - SE 9 11 5 6 1015.1 1015.0 0.0
21/07:30am 16.7 - - - - S 11 15 6 8 1015.5 1015.4 0.0
21/07:00am 15.9 - - - - S 9 15 5 8 1015.5 1015.4 0.0
21/06:30am 15.0 - - - - S 9 13 5 7 1015.1 1015.0 0.0
21/06:00am 14.4 - - - - SSW 11 13 6 7 1014.7 1014.6 0.0
21/05:30am 15.7 - - - - SE 13 15 7 8 1014.4 1014.3 0.0
21/05:00am 15.9 - - - - SE 15 20 8 11 1014.2 1014.1 0.0
21/04:30am 15.9 - - - - SE 17 20 9 11 1014.1 1014.0 0.0
21/04:00am 15.9 - - - - SE 19 22 10 12 1014.1 1014.0 0.0
21/03:30am 15.8 - - - - SE 20 26 11 14 1014.1 1014.0 0.0
21/03:00am 15.7 - - - - SE 19 24 10 13 1014.4 1014.3 0.0
21/02:30am 16.0 - - - - SE 20 24 11 13 1014.9 1014.8 0.0
21/02:00am 15.9 - - - - SE 20 26 11 14 1015.1 1015.0 0.0
21/01:30am 15.9 - - - - SE 22 28 12 15 1015.3 1015.2 0.0
21/01:00am 15.8 - - - - SE 20 28 11 15 1015.6 1015.5 0.0
21/12:30am 16.0 - - - - SE 28 35 15 19 1015.6 1015.5 0.0
21/12:00am 16.2 - - - - SE 26 35 14 19 1015.8 1015.7 0.0
 
Date/Time
EDT
Temp
°C
App
Temp
°C
Dew
Point
Rel
Hum
%
Delta-T
°C
Wind Press
QNH
hPa
Press
MSL
hPa
Rain
since 9 am
mm
Dir
 
Spd
km/h
Gust
km/h
Spd
kts
Gust
kts
20/11:30pm 16.2 - - - - SE 26 35 14 19 1016.0 1015.9 0.0
20/11:00pm 16.3 - - - - SE 30 39 16 21 1015.7 1015.6 0.0
20/10:30pm 16.1 - - - - SE 28 37 15 20 1015.6 1015.5 0.0
20/10:00pm 16.3 - - - - SSE 28 35 15 19 1015.5 1015.4 0.0
20/09:30pm 16.4 - - - - SSE 28 35 15 19 1015.3 1015.2 0.0
20/09:00pm 17.0 - - - - S 20 32 11 17 1015.1 1015.0 0.0
20/08:30pm 17.5 - - - - SSW 13 26 7 14 1014.8 1014.7 0.0
20/08:00pm 17.5 - - - - W 17 28 9 15 1014.5 1014.4 0.0
20/07:30pm 18.2 - - - - W 20 30 11 16 1014.0 1013.9 0.0
20/07:00pm 18.2 - - - - W 28 37 15 20 1013.3 1013.2 0.0
20/06:30pm 18.5 - - - - WNW 26 39 14 21 1012.7 1012.6 0.0
20/06:00pm 18.5 - - - - WNW 30 52 16 28 1012.1 1012.0 0.0
20/05:30pm 18.7 - - - - WNW 33 54 18 29 1012.0 1011.9 0.0
20/05:07pm 18.9 - - - - WNW 33 54 18 29 1012.0 1011.9 0.0
20/05:00pm 19.0 - - - - WNW 35 50 19 27 1012.0 1011.9 0.0
20/04:30pm 19.3 - - - - WNW 35 50 19 27 1012.4 1012.3 0.0
20/04:00pm 19.4 - - - - WNW 35 48 19 26 1012.5 1012.4 0.0
20/03:30pm 19.9 - - - - WNW 33 46 18 25 1012.9 1012.8 0.0
20/03:00pm 19.4 - - - - WNW 35 46 19 25 1013.0 1012.9 0.0
20/02:30pm 19.3 - - - - WNW 33 46 18 25 1013.1 1013.0 0.0
20/02:00pm 19.5 - - - - WNW 33 43 18 23 1013.3 1013.2 0.0
20/01:30pm 19.3 - - - - WNW 30 43 16 23 1013.5 1013.4 0.0
20/01:14pm 18.9 - - - - WNW 30 50 16 27 1013.7 1013.6 0.0
20/01:00pm 19.2 - - - - WNW 30 46 16 25 1013.8 1013.7 0.0
20/12:30pm 17.9 - - - - WNW 30 41 16 22 1014.0 1013.9 0.0
20/12:00pm 18.0 - - - - WNW 32 46 17 25 1014.1 1014.0 0.0
20/11:30am 17.7 - - - - WNW 28 46 15 25 1014.1 1014.0 0.0
20/11:00am 17.7 - - - - WNW 30 41 16 22 1014.1 1014.0 0.0
20/10:30am 17.3 - - - - WNW 30 43 16 23 1014.0 1013.9 0.0
20/10:08am 17.2 - - - - WNW 32 52 17 28 1014.0 1013.9 0.0
20/10:00am 17.4 - - - - WNW 32 44 17 24 1014.0 1013.9 0.0
20/09:30am 16.8 - - - - WNW 26 43 14 23 1014.2 1014.1 0.0
20/09:00am 16.5 - - - - WNW 26 37 14 20 1014.2 1014.1 0.0
20/08:30am 16.3 - - - - WNW 28 43 15 23 1014.1 1014.0 0.0
20/08:00am 16.5 - - - - W 26 43 14 23 1013.9 1013.8 0.0
20/07:30am 15.3 - - - - WNW 24 37 13 20 1013.9 1013.8 0.0
20/07:00am 14.9 - - - - WNW 26 37 14 20 1013.6 1013.5 0.0
20/06:30am 14.8 - - - - WNW 26 41 14 22 1013.6 1013.5 0.0
20/06:00am 15.2 - - - - W 32 44 17 24 1013.5 1013.4 0.0
20/05:30am 15.0 - - - - W 28 39 15 21 1013.4 1013.3 0.0
20/05:00am 14.7 - - - - W 26 39 14 21 1013.5 1013.4 0.0
20/04:30am 14.5 - - - - W 28 39 15 21 1013.2 1013.1 0.0
20/04:00am 13.9 - - - - W 20 30 11 16 1013.0 1012.9 0.0
20/03:30am 13.7 - - - - W 19 32 10 17 1013.2 1013.1 0.0
20/03:00am 13.9 - - - - W 24 37 13 20 1013.3 1013.2 0.0
20/02:30am 14.1 - - - - W 24 37 13 20 1013.5 1013.4 0.0
20/02:00am 14.3 - - - - W 26 35 14 19 1013.7 1013.6 0.0
20/01:30am 14.4 - - - - W 28 43 15 23 1014.0 1013.9 0.0
20/01:00am 14.5 - - - - W 28 44 15 24 1014.1 1014.0 0.0
20/12:30am 14.6 - - - - W 26 37 14 20 1014.3 1014.2 0.0
20/12:00am 14.7 - - - - W 22 35 12 19 1014.4 1014.3 0.0
 
Date/Time
EDT
Temp
°C
App
Temp
°C
Dew
Point
Rel
Hum
%
Delta-T
°C
Wind Press
QNH
hPa
Press
MSL
hPa
Rain
since 9 am
mm
Dir
 
Spd
km/h
Gust
km/h
Spd
kts
Gust
kts
19/11:30pm 15.1 - - - - W 26 35 14 19 1014.7 1014.6 0.0
19/11:00pm 15.7 - - - - W 24 39 13 21 1014.6 1014.5 0.0
19/10:30pm 16.1 - - - - W 30 39 16 21 1014.8 1014.7 0.0
19/10:00pm 16.2 - - - - W 30 43 16 23 1014.4 1014.3 0.0
19/09:30pm 16.3 - - - - W 33 46 18 25 1014.0 1013.9 0.0
19/09:00pm 16.2 - - - - W 35 50 19 27 1013.8 1013.7 0.0
19/08:30pm 16.0 - - - - WNW 28 46 15 25 1013.7 1013.6 0.0
19/08:05pm 16.0 - - - - WNW 28 46 15 25 1013.6 1013.5 0.0
19/08:00pm 16.0 - - - - WNW 30 44 16 24 1013.6 1013.5 0.0
19/07:30pm 16.3 - - - - W 35 44 19 24 1013.4 1013.3 0.0
19/07:08pm 16.6 - - - - W 32 50 17 27 1013.3 1013.2 0.0
19/07:00pm 16.9 - - - - WNW 30 46 16 25 1013.3 1013.2 0.0
19/06:30pm 17.5 - - - - W 35 50 19 27 1013.1 1013.0 0.0
19/06:00pm 17.1 - - - - W 35 48 19 26 1012.8 1012.7 0.0
19/05:35pm 17.8 - - - - W 32 50 17 27 1012.7 1012.6 0.0
19/05:30pm 18.3 - - - - WNW 33 50 18 27 1012.8 1012.7 0.0
19/05:26pm 17.9 - - - - WNW 32 50 17 27 1012.8 1012.7 0.0
19/05:00pm 17.9 - - - - WNW 30 43 16 23 1012.7 1012.6 0.0
19/04:30pm 18.2 - - - - WNW 32 43 17 23 1012.8 1012.7 0.0
19/04:00pm 18.5 - - - - WNW 28 43 15 23 1012.9 1012.8 0.0
19/03:30pm 18.0 - - - - WNW 30 43 16 23 1013.0 1012.9 0.0
19/03:00pm 18.4 - - - - WNW 28 39 15 21 1012.9 1012.8 0.0
19/02:30pm 17.9 - - - - WNW 30 39 16 21 1012.9 1012.8 0.0
19/02:00pm 17.8 - - - - NW 30 41 16 22 1012.8 1012.7 0.0
19/01:30pm 18.1 - - - - WNW 28 39 15 21 1012.7 1012.6 0.0
19/01:00pm 18.0 - - - - WNW 24 35 13 19 1012.6 1012.5 0.0
19/12:30pm 17.8 - - - - NW 19 24 10 13 1012.6 1012.5 0.0
19/12:00pm 16.6 - - - - NW 17 20 9 11 1012.7 1012.6 0.0
19/11:30am 16.8 - - - - NW 15 20 8 11 1012.5 1012.4 0.0
19/11:00am 16.8 - - - - NW 11 17 6 9 1012.6 1012.5 0.0
19/10:30am 15.9 - - - - NW 11 17 6 9 1012.6 1012.5 0.0
19/10:00am 16.0 - - - - NW 13 19 7 10 1012.6 1012.5 0.0
19/09:30am 15.9 - - - - NW 9 17 5 9 1012.3 1012.2 0.0
19/09:00am 15.5 - - - - ENE 4 6 2 3 1012.3 1012.2 0.0
19/08:30am 15.7 - - - - S 6 11 3 6 1012.0 1011.9 0.0
19/08:00am 14.0 - - - - SW 6 11 3 6 1011.6 1011.5 0.0
19/07:30am 13.1 - - - - SW 6 11 3 6 1011.2 1011.1 0.0
19/07:00am 12.2 - - - - WSW 11 15 6 8 1010.7 1010.7 0.0
19/06:30am 11.3 - - - - WSW 13 19 7 10 1010.4 1010.4 0.0
19/06:00am 10.9 - - - - WSW 9 15 5 8 1010.0 1010.0 0.0
19/05:30am 11.4 - - - - WSW 15 20 8 11 1009.6 1009.6 0.0
19/05:00am 11.7 - - - - W 17 26 9 14 1009.1 1009.1 0.0
19/04:30am 11.5 - - - - W 17 24 9 13 1008.7 1008.7 0.0
19/04:00am 11.7 - - - - W 19 30 10 16 1008.3 1008.3 0.0
19/03:30am 11.7 - - - - WSW 17 26 9 14 1008.2 1008.2 0.0
19/03:00am 11.9 - - - - WSW 15 22 8 12 1008.1 1008.1 0.0
19/02:30am 12.4 - - - - WSW 13 20 7 11 1007.9 1007.9 0.0
19/02:00am 12.7 - - - - WSW 19 26 10 14 1007.7 1007.7 0.0
19/01:30am 13.0 - - - - WSW 19 28 10 15 1007.7 1007.7 0.0
19/01:00am 13.7 - - - - WSW 15 20 8 11 1007.6 1007.6 0.0
19/12:30am 14.9 - - - - W 28 43 15 23 1007.3 1007.3 0.0
19/12:00am 14.9 - - - - W 30 41 16 22 1007.2 1007.2 0.0
 
Date/Time
EDT
Temp
°C
App
Temp
°C
Dew
Point
Rel
Hum
%
Delta-T
°C
Wind Press
QNH
hPa
Press
MSL
hPa
Rain
since 9 am
mm
Dir
 
Spd
km/h
Gust
km/h
Spd
kts
Gust
kts
18/11:30pm 14.9 - - - - W 28 39 15 21 1007.0 1007.0 0.0
18/11:00pm 15.1 - - - - W 33 46 18 25 1006.7 1006.7 0.0
18/10:30pm 15.1 - - - - W 33 44 18 24 1006.5 1006.5 0.0
18/10:00pm 15.3 - - - - W 33 46 18 25 1006.1 1006.1 0.0
18/09:30pm 15.0 - - - - W 41 52 22 28 1005.7 1005.7 0.0
18/09:00pm 14.8 - - - - W 35 50 19 27 1005.2 1005.2 0.0
18/08:30pm 14.7 - - - - W 33 56 18 30 1005.2 1005.2 0.0
18/08:25pm 14.9 - - - - W 35 56 19 30 1005.2 1005.2 0.0
18/08:00pm 15.0 - - - - W 30 43 16 23 1005.1 1005.1 0.0
18/07:30pm 15.3 - - - - W 33 46 18 25 1004.7 1004.7 0.0
18/07:00pm 16.3 - - - - W 32 43 17 23 1004.1 1004.1 0.0
18/06:30pm 16.7 - - - - W 33 44 18 24 1003.7 1003.7 0.0
18/06:00pm 16.3 - - - - W 35 48 19 26 1003.5 1003.5 0.0
18/05:33pm 17.8 - - - - W 32 50 17 27 1003.3 1003.3 0.0
18/05:30pm 18.2 - - - - WNW 30 48 16 26 1003.3 1003.3 0.0
18/05:29pm 17.9 - - - - WNW 28 48 15 26 1003.4 1003.4 0.0
18/05:00pm 18.6 - - - - WNW 35 52 19 28 1003.1 1003.1 0.0
18/04:48pm 18.2 - - - - WNW 37 57 20 31 1003.1 1003.1 0.0
18/04:30pm 17.4 - - - - WNW 37 50 20 27 1002.9 1002.9 0.0
18/04:00pm 18.1 - - - - NW 35 46 19 25 1002.7 1002.7 0.0
18/03:30pm 18.3 - - - - NW 32 41 17 22 1002.8 1002.8 0.0
18/03:00pm 19.4 - - - - NW 32 39 17 21 1002.6 1002.6 0.0
18/02:30pm 19.5 - - - - NW 30 37 16 20 1002.7 1002.7 0.0
18/02:00pm 20.6 - - - - WNW 19 30 10 16 1002.9 1002.9 0.0
18/01:30pm 20.6 - - - - NW 13 19 7 10 1003.2 1003.2 0.0
18/01:00pm 21.3 - - - - NNE 17 22 9 12 1003.3 1003.3 0.0
18/12:30pm 19.9 - - - - NNE 22 32 12 17 1003.6 1003.6 0.0
18/12:00pm 19.4 - - - - NNE 20 30 11 16 1003.9 1003.9 0.0
18/11:30am 18.1 - - - - N 22 30 12 16 1004.3 1004.3 0.0

Other Formats:

Comma delimited format used in spreadsheet applications
http://www.bom.gov.au/fwo/IDT60801/IDT60801.95985.axf

JavaScript Object Notation format (JSON) in row-major order
http://www.bom.gov.au/fwo/IDT60801/IDT60801.95985.json